PWSweather.com
Personal Weather Stations
Station Observations

EtonMackayAU

Lat: -21.263, Lon: 148.975

Elevation: 106

Station Type: Davis Vantage Vue

http://aspgweather.com/cumulus/data.php

Latest ConditionsUpdated 2:36:02 PM GMT+10:10 Saturday, Aug 18, 2018
Currently Today's Max Today's Min Today's Average
Temperature 84.9°F29.4°C 85.5°F29.7°C 46.9°F8.3°C 63.8°F17.7°C
Dew Point 41.2°F5.1°C 61.2°F16.2°C -46.7°F-43.7°C 50.5°F10.3°C
Winds 7.5 mph NE12.1 kmh NE 9.9 mph -15.9 kmh - - 3.0 mph 4.8 kmh
Wind Gusts 16.8 mph27.0 kmh 16.8 mph27.0 kmh - -
Humidity 21% 100% 1% 72%
Pressure 29.90 in1012.5 mb 30.05 in1017.6 mb 29.90 in1012.5 mb -
Precipitation - 0.01 in0.3 mm - -
Hour Temp Dew Point Humidity Winds Wind Gusts Pressure Precip Precip Rate Daily Precip Total
02:36 PM 84.9°F29.4°C 41.2°F5.1°C 21% 7.5 mph NE12.1 kmh NE 16.8 mph27.0 kmh 29.90 in1012.5 mb 0.00 in0.0 mm 0.00 in0.0 mm 0.01 in0.3 mm
02:31 PM 85.1°F29.5°C 41.2°F5.1°C 21% 8.1 mph NE13.0 kmh NE 11.2 mph18.0 kmh 29.90 in1012.5 mb 0.00 in0.0 mm 0.00 in0.0 mm 0.01 in0.3 mm
02:26 PM 85.1°F29.5°C 41.2°F5.1°C 21% 9.3 mph NE15.0 kmh NE 14.9 mph24.0 kmh 29.90 in1012.5 mb 0.00 in0.0 mm 0.00 in0.0 mm 0.01 in0.3 mm
02:21 PM 85.3°F29.6°C 40.6°F4.8°C 21% 9.9 mph ENE15.9 kmh ENE 14.9 mph24.0 kmh 29.90 in1012.5 mb 0.00 in0.0 mm 0.00 in0.0 mm 0.01 in0.3 mm
02:16 PM 85.5°F29.7°C 40.6°F4.8°C 21% 8.1 mph ENE13.0 kmh ENE 14.9 mph24.0 kmh 29.90 in1012.5 mb 0.00 in0.0 mm 0.00 in0.0 mm 0.01 in0.3 mm
02:11 PM 85.1°F29.5°C 42.1°F5.6°C 22% 7.5 mph NE12.1 kmh NE 12.4 mph20.0 kmh 29.91 in1012.9 mb 0.00 in0.0 mm 0.00 in0.0 mm 0.01 in0.3 mm
02:06 PM 84.7°F29.3°C 40.8°F4.9°C 21% 7.5 mph NE12.1 kmh NE 12.4 mph20.0 kmh 29.91 in1012.9 mb 0.00 in0.0 mm 0.00 in0.0 mm 0.01 in0.3 mm
02:01 PM 85.1°F29.5°C 41.0°F5.0°C 21% 5.6 mph NE9.0 kmh NE 10.6 mph17.1 kmh 29.91 in1012.9 mb 0.00 in0.0 mm 0.00 in0.0 mm 0.01 in0.3 mm
01:56 PM 84.6°F29.2°C 42.1°F5.6°C 22% 5.6 mph E9.0 kmh E 10.6 mph17.1 kmh 29.92 in1013.2 mb 0.00 in0.0 mm 0.00 in0.0 mm 0.01 in0.3 mm
01:51 PM 84.2°F29.0°C 41.9°F5.5°C 22% 6.8 mph SSE10.9 kmh SSE 11.2 mph18.0 kmh 29.92 in1013.2 mb 0.00 in0.0 mm 0.00 in0.0 mm 0.01 in0.3 mm
01:46 PM 83.3°F28.5°C 41.7°F5.4°C 23% 7.5 mph S12.1 kmh S 11.2 mph18.0 kmh 29.92 in1013.2 mb 0.00 in0.0 mm 0.00 in0.0 mm 0.01 in0.3 mm
01:41 PM 83.7°F28.7°C 42.6°F5.9°C 24% 8.1 mph SE13.0 kmh SE 14.3 mph23.0 kmh 29.93 in1013.5 mb 0.00 in0.0 mm 0.00 in0.0 mm 0.01 in0.3 mm
01:36 PM 85.1°F29.5°C 40.6°F4.8°C 21% 6.8 mph E10.9 kmh E 14.3 mph23.0 kmh 29.93 in1013.5 mb 0.00 in0.0 mm 0.00 in0.0 mm 0.01 in0.3 mm
01:31 PM 85.1°F29.5°C 43.2°F6.2°C 23% 5.6 mph ENE9.0 kmh ENE 10.6 mph17.1 kmh 29.93 in1013.5 mb 0.00 in0.0 mm 0.00 in0.0 mm 0.01 in0.3 mm
01:26 PM 84.7°F29.3°C 40.6°F4.8°C 21% 6.2 mph E10.0 kmh E 11.2 mph18.0 kmh 29.93 in1013.5 mb 0.00 in0.0 mm 0.00 in0.0 mm 0.01 in0.3 mm
01:21 PM 84.9°F29.4°C 45.0°F7.2°C 25% 5.6 mph E9.0 kmh E 11.2 mph18.0 kmh 29.94 in1013.9 mb 0.00 in0.0 mm 0.00 in0.0 mm 0.01 in0.3 mm
01:11 PM 85.1°F29.5°C 41.5°F5.3°C 22% 5.0 mph E8.0 kmh E 8.7 mph14.0 kmh 29.94 in1013.9 mb 0.00 in0.0 mm 0.00 in0.0 mm 0.01 in0.3 mm
01:06 PM 84.0°F28.9°C 45.1°F7.3°C 26% 5.6 mph ENE9.0 kmh ENE 8.7 mph14.0 kmh 29.95 in1014.2 mb 0.00 in0.0 mm 0.00 in0.0 mm 0.01 in0.3 mm
01:01 PM 83.8°F28.8°C 42.1°F5.6°C 23% 6.8 mph E10.9 kmh E 10.6 mph17.1 kmh 29.95 in1014.2 mb 0.00 in0.0 mm 0.00 in0.0 mm 0.01 in0.3 mm
12:56 PM 83.3°F28.5°C 46.6°F8.1°C 28% 6.2 mph E10.0 kmh E 10.6 mph17.1 kmh 29.95 in1014.2 mb 0.00 in0.0 mm 0.00 in0.0 mm 0.01 in0.3 mm
12:51 PM 83.7°F28.7°C 48.6°F9.2°C 30% 5.6 mph E9.0 kmh E 10.6 mph17.1 kmh 29.96 in1014.6 mb 0.00 in0.0 mm 0.00 in0.0 mm 0.01 in0.3 mm
12:46 PM 83.5°F28.6°C 48.6°F9.2°C 30% 6.2 mph ENE10.0 kmh ENE 14.9 mph24.0 kmh 29.96 in1014.6 mb 0.00 in0.0 mm 0.00 in0.0 mm 0.01 in0.3 mm
12:41 PM 84.2°F29.0°C 51.3°F10.7°C 32% 5.6 mph NE9.0 kmh NE 14.9 mph24.0 kmh 29.96 in1014.6 mb 0.00 in0.0 mm 0.00 in0.0 mm 0.01 in0.3 mm
12:36 PM 83.5°F28.6°C 51.3°F10.7°C 33% 4.3 mph E6.9 kmh E 8.7 mph14.0 kmh 29.97 in1014.9 mb 0.00 in0.0 mm 0.00 in0.0 mm 0.01 in0.3 mm
12:31 PM 82.6°F28.1°C 45.1°F7.3°C 27% 6.2 mph SE10.0 kmh SE 14.3 mph23.0 kmh 29.97 in1014.9 mb 0.00 in0.0 mm 0.00 in0.0 mm 0.01 in0.3 mm
12:26 PM 81.7°F27.6°C 45.1°F7.3°C 28% 7.5 mph SE12.1 kmh SE 14.3 mph23.0 kmh 29.97 in1014.9 mb 0.00 in0.0 mm 0.00 in0.0 mm 0.01 in0.3 mm
12:21 PM 81.7°F27.6°C 46.4°F8.0°C 29% 6.8 mph E10.9 kmh E 11.2 mph18.0 kmh 29.98 in1015.2 mb 0.00 in0.0 mm 0.00 in0.0 mm 0.01 in0.3 mm
12:16 PM 81.1°F27.3°C 47.1°F8.4°C 30% 6.8 mph ESE10.9 kmh ESE 11.2 mph18.0 kmh 29.98 in1015.2 mb 0.00 in0.0 mm 0.00 in0.0 mm 0.01 in0.3 mm
12:11 PM 82.2°F27.9°C 47.8°F8.8°C 30% 6.2 mph ESE10.0 kmh ESE 10.6 mph17.1 kmh 29.98 in1015.2 mb 0.00 in0.0 mm 0.00 in0.0 mm 0.01 in0.3 mm
12:06 PM 82.0°F27.8°C 48.2°F9.0°C 31% 7.5 mph E12.1 kmh E 10.6 mph17.1 kmh 29.99 in1015.6 mb 0.00 in0.0 mm 0.00 in0.0 mm 0.01 in0.3 mm
12:01 PM 82.4°F28.0°C 48.6°F9.2°C 31% 8.1 mph NE13.0 kmh NE 11.2 mph18.0 kmh 29.99 in1015.6 mb 0.00 in0.0 mm 0.00 in0.0 mm 0.01 in0.3 mm
11:56 AM 82.8°F28.2°C 49.3°F9.6°C 31% 7.5 mph NNE12.1 kmh NNE 11.2 mph18.0 kmh 29.99 in1015.6 mb 0.00 in0.0 mm 0.00 in0.0 mm 0.01 in0.3 mm
11:51 AM 82.4°F28.0°C 49.3°F9.6°C 32% 6.8 mph NNE10.9 kmh NNE 11.2 mph18.0 kmh 30.00 in1015.9 mb 0.00 in0.0 mm 0.00 in0.0 mm 0.01 in0.3 mm
11:46 AM 82.0°F27.8°C 51.1°F10.6°C 34% 5.6 mph NNE9.0 kmh NNE 10.6 mph17.1 kmh 30.00 in1015.9 mb 0.00 in0.0 mm 0.00 in0.0 mm 0.01 in0.3 mm
11:41 AM 81.0°F27.2°C 51.1°F10.6°C 35% 5.0 mph NNW8.0 kmh NNW 10.6 mph17.1 kmh 30.00 in1015.9 mb 0.00 in0.0 mm 0.00 in0.0 mm 0.01 in0.3 mm
11:36 AM 80.8°F27.1°C 50.9°F10.5°C 35% 5.0 mph NNW8.0 kmh NNW 10.6 mph17.1 kmh 30.01 in1016.3 mb 0.00 in0.0 mm 0.00 in0.0 mm 0.01 in0.3 mm
11:31 AM 80.1°F26.7°C 50.2°F10.1°C 35% 5.6 mph NNW9.0 kmh NNW 11.2 mph18.0 kmh 30.01 in1016.3 mb 0.00 in0.0 mm 0.00 in0.0 mm 0.01 in0.3 mm
11:26 AM 79.9°F26.6°C 50.2°F10.1°C 36% 9.9 mph N15.9 kmh N 14.3 mph23.0 kmh 30.02 in1016.6 mb 0.00 in0.0 mm 0.00 in0.0 mm 0.01 in0.3 mm
11:21 AM 79.5°F26.4°C 49.8°F9.9°C 35% 9.3 mph NNW15.0 kmh NNW 14.3 mph23.0 kmh 30.02 in1016.6 mb 0.00 in0.0 mm 0.00 in0.0 mm 0.01 in0.3 mm
11:11 AM 79.0°F26.1°C 52.9°F11.6°C 40% 8.1 mph NW13.0 kmh NW 11.2 mph18.0 kmh 30.02 in1016.6 mb 0.00 in0.0 mm 0.00 in0.0 mm 0.01 in0.3 mm
11:06 AM 78.6°F25.9°C 52.2°F11.2°C 40% 7.5 mph NW12.1 kmh NW 11.2 mph18.0 kmh 30.03 in1016.9 mb 0.00 in0.0 mm 0.00 in0.0 mm 0.01 in0.3 mm
11:01 AM 79.2°F26.2°C 52.9°F11.6°C 40% 7.5 mph NW12.1 kmh NW 10.6 mph17.1 kmh 30.03 in1016.9 mb 0.00 in0.0 mm 0.00 in0.0 mm 0.01 in0.3 mm
10:56 AM 78.6°F25.9°C 54.0°F12.2°C 43% 8.7 mph NNW14.0 kmh NNW 11.2 mph18.0 kmh 30.03 in1016.9 mb 0.00 in0.0 mm 0.00 in0.0 mm 0.01 in0.3 mm
10:51 AM 77.7°F25.4°C 56.1°F13.4°C 47% 9.3 mph NNW15.0 kmh NNW 11.2 mph18.0 kmh 30.03 in1016.9 mb 0.00 in0.0 mm 0.00 in0.0 mm 0.01 in0.3 mm
10:46 AM 77.5°F25.3°C 54.0°F12.2°C 44% 9.9 mph NNW15.9 kmh NNW 12.4 mph20.0 kmh 30.03 in1016.9 mb 0.00 in0.0 mm 0.00 in0.0 mm 0.01 in0.3 mm
10:41 AM 76.6°F24.8°C 53.6°F12.0°C 45% 9.9 mph NNW15.9 kmh NNW 12.4 mph20.0 kmh 30.03 in1016.9 mb 0.00 in0.0 mm 0.00 in0.0 mm 0.01 in0.3 mm
10:36 AM 76.1°F24.5°C 57.0°F13.9°C 52% 9.9 mph NNW15.9 kmh NNW 12.4 mph20.0 kmh 30.04 in1017.3 mb 0.00 in0.0 mm 0.00 in0.0 mm 0.01 in0.3 mm
10:31 AM 75.4°F24.1°C 57.4°F14.1°C 54% 9.3 mph NW15.0 kmh NW 11.2 mph18.0 kmh 30.04 in1017.3 mb 0.00 in0.0 mm 0.00 in0.0 mm 0.01 in0.3 mm
10:26 AM 74.8°F23.8°C 57.4°F14.1°C 55% 8.7 mph NW14.0 kmh NW 11.2 mph18.0 kmh 30.04 in1017.3 mb 0.00 in0.0 mm 0.00 in0.0 mm 0.01 in0.3 mm
10:21 AM 73.8°F23.2°C 57.4°F14.1°C 57% 8.7 mph NW14.0 kmh NW 10.6 mph17.1 kmh 30.04 in1017.3 mb 0.00 in0.0 mm 0.00 in0.0 mm 0.01 in0.3 mm
10:16 AM 73.6°F23.1°C 57.7°F14.3°C 58% 8.1 mph NW13.0 kmh NW 10.6 mph17.1 kmh 30.04 in1017.3 mb 0.00 in0.0 mm 0.00 in0.0 mm 0.01 in0.3 mm
10:11 AM 73.4°F23.0°C 57.9°F14.4°C 59% 6.8 mph NNW10.9 kmh NNW 10.6 mph17.1 kmh 30.05 in1017.6 mb 0.00 in0.0 mm 0.00 in0.0 mm 0.01 in0.3 mm
10:06 AM 72.1°F22.3°C 57.9°F14.4°C 61% 6.8 mph NW10.9 kmh NW 10.6 mph17.1 kmh 30.05 in1017.6 mb 0.00 in0.0 mm 0.00 in0.0 mm 0.01 in0.3 mm
10:01 AM 70.7°F21.5°C 59.0°F15.0°C 67% 7.5 mph NW12.1 kmh NW 10.6 mph17.1 kmh 30.05 in1017.6 mb 0.00 in0.0 mm 0.00 in0.0 mm 0.01 in0.3 mm
09:56 AM 70.2°F21.2°C 57.6°F14.2°C 64% 6.8 mph NW10.9 kmh NW 8.7 mph14.0 kmh 30.05 in1017.6 mb 0.00 in0.0 mm 0.00 in0.0 mm 0.01 in0.3 mm
09:51 AM 68.7°F20.4°C 59.0°F15.0°C 71% 6.8 mph NW10.9 kmh NW 8.7 mph14.0 kmh 30.05 in1017.6 mb 0.00 in0.0 mm 0.00 in0.0 mm 0.01 in0.3 mm
09:46 AM 68.5°F20.3°C 58.8°F14.9°C 71% 6.8 mph NW10.9 kmh NW 8.7 mph14.0 kmh 30.05 in1017.6 mb 0.00 in0.0 mm 0.00 in0.0 mm 0.01 in0.3 mm
09:41 AM 68.4°F20.2°C 59.5°F15.3°C 74% 5.0 mph NW8.0 kmh NW 6.2 mph10.0 kmh 30.05 in1017.6 mb 0.00 in0.0 mm 0.00 in0.0 mm 0.01 in0.3 mm
09:36 AM 68.4°F20.2°C 59.0°F15.0°C 72% 5.0 mph NW8.0 kmh NW 6.2 mph10.0 kmh 30.05 in1017.6 mb 0.00 in0.0 mm 0.00 in0.0 mm 0.01 in0.3 mm
09:31 AM 68.2°F20.1°C 58.8°F14.9°C 72% 5.0 mph NW8.0 kmh NW 6.2 mph10.0 kmh 30.05 in1017.6 mb 0.00 in0.0 mm 0.00 in0.0 mm 0.01 in0.3 mm
09:21 AM 69.6°F20.9°C 59.0°F15.0°C 69% 4.3 mph NW6.9 kmh NW 5.0 mph8.0 kmh 30.05 in1017.6 mb 0.00 in0.0 mm 0.00 in0.0 mm 0.01 in0.3 mm
09:16 AM 69.6°F20.9°C 59.4°F15.2°C 70% 5.0 mph NW8.0 kmh NW 6.2 mph10.0 kmh 30.05 in1017.6 mb 0.00 in0.0 mm 0.00 in0.0 mm 0.01 in0.3 mm
09:11 AM 68.2°F20.1°C 58.8°F14.9°C 72% 4.3 mph NNW6.9 kmh NNW 6.2 mph10.0 kmh 30.05 in1017.6 mb 0.00 in0.0 mm 0.00 in0.0 mm 0.01 in0.3 mm
09:06 AM 66.0°F18.9°C 59.0°F15.0°C 78% 3.1 mph NW5.0 kmh NW 5.0 mph8.0 kmh 30.05 in1017.6 mb 0.00 in0.0 mm 0.00 in0.0 mm 0.01 in0.3 mm
09:01 AM 64.4°F18.0°C 59.2°F15.1°C 83% 1.9 mph NW3.1 kmh NW 3.7 mph6.0 kmh 30.05 in1017.6 mb 0.00 in0.0 mm 0.00 in0.0 mm 0.01 in0.3 mm
08:56 AM 62.8°F17.1°C 59.5°F15.3°C 89% 0.6 mph NNW1.0 kmh NNW 3.7 mph6.0 kmh 30.05 in1017.6 mb 0.00 in0.0 mm 0.00 in0.0 mm 0.01 in0.3 mm
08:51 AM 60.8°F16.0°C 60.8°F16.0°C 100% 1.2 mph NW1.9 kmh NW 2.5 mph4.0 kmh 30.05 in1017.6 mb 0.00 in0.0 mm 0.00 in0.0 mm 0.01 in0.3 mm
08:46 AM 59.7°F15.4°C 59.7°F15.4°C 100% 1.9 mph NW3.1 kmh NW 2.5 mph4.0 kmh 30.05 in1017.6 mb 0.00 in0.0 mm 0.00 in0.0 mm 0.01 in0.3 mm
08:41 AM 58.8°F14.9°C 58.8°F14.9°C 100% 1.2 mph WNW1.9 kmh WNW 3.7 mph6.0 kmh 30.05 in1017.6 mb 0.00 in0.0 mm 0.00 in0.0 mm 0.01 in0.3 mm
08:36 AM 57.7°F14.3°C 57.7°F14.3°C 100% 0.6 mph WNW1.0 kmh WNW 3.7 mph6.0 kmh 30.04 in1017.3 mb 0.00 in0.0 mm 0.00 in0.0 mm 0.01 in0.3 mm
08:26 AM 56.1°F13.4°C 56.1°F13.4°C 100% Calm Calm -- 30.04 in1017.3 mb 0.00 in0.0 mm 0.00 in0.0 mm 0.01 in0.3 mm
08:21 AM 56.1°F13.4°C 56.1°F13.4°C 100% Calm Calm -- 30.04 in1017.3 mb 0.00 in0.0 mm 0.00 in0.0 mm 0.01 in0.3 mm
08:16 AM 55.2°F12.9°C 55.2°F12.9°C 100% Calm Calm 1.9 mph3.1 kmh 30.04 in1017.3 mb 0.00 in0.0 mm 0.00 in0.0 mm 0.01 in0.3 mm
08:11 AM 54.5°F12.5°C 54.5°F12.5°C 100% 1.2 mph WNW1.9 kmh WNW 3.7 mph6.0 kmh 30.04 in1017.3 mb 0.00 in0.0 mm 0.00 in0.0 mm 0.01 in0.3 mm
08:06 AM 53.4°F11.9°C 53.4°F11.9°C 100% 2.5 mph WNW4.0 kmh WNW 3.7 mph6.0 kmh 30.04 in1017.3 mb 0.00 in0.0 mm 0.00 in0.0 mm 0.01 in0.3 mm
08:01 AM 52.3°F11.3°C 52.3°F11.3°C 100% 1.9 mph WNW3.1 kmh WNW 3.7 mph6.0 kmh 30.04 in1017.3 mb 0.00 in0.0 mm 0.00 in0.0 mm 0.01 in0.3 mm
07:56 AM 50.9°F10.5°C 50.9°F10.5°C 100% 0.6 mph NW1.0 kmh NW 1.9 mph3.1 kmh 30.04 in1017.3 mb 0.00 in0.0 mm 0.00 in0.0 mm 0.01 in0.3 mm
07:51 AM 50.2°F10.1°C 50.2°F10.1°C 100% Calm Calm -- 30.04 in1017.3 mb 0.00 in0.0 mm 0.00 in0.0 mm 0.01 in0.3 mm
07:46 AM 49.6°F9.8°C 49.6°F9.8°C 100% Calm Calm -- 30.04 in1017.3 mb 0.00 in0.0 mm 0.00 in0.0 mm 0.01 in0.3 mm
07:41 AM 49.8°F9.9°C 49.8°F9.9°C 100% Calm Calm -- 30.03 in1016.9 mb 0.00 in0.0 mm 0.00 in0.0 mm 0.01 in0.3 mm
07:36 AM 49.3°F9.6°C 49.3°F9.6°C 100% Calm Calm -- 30.03 in1016.9 mb 0.00 in0.0 mm 0.00 in0.0 mm 0.01 in0.3 mm
07:31 AM 48.4°F9.1°C 48.4°F9.1°C 100% Calm Calm -- 30.03 in1016.9 mb 0.00 in0.0 mm 0.00 in0.0 mm 0.01 in0.3 mm
07:26 AM 48.6°F9.2°C 48.6°F9.2°C 100% Calm Calm -- 30.03 in1016.9 mb 0.00 in0.0 mm 0.00 in0.0 mm 0.01 in0.3 mm
07:21 AM 48.0°F8.9°C 48.0°F8.9°C 100% Calm Calm 1.9 mph3.1 kmh 30.02 in1016.6 mb 0.00 in0.0 mm 0.00 in0.0 mm 0.01 in0.3 mm
07:16 AM 47.3°F8.5°C 47.3°F8.5°C 100% 1.2 mph W1.9 kmh W 3.7 mph6.0 kmh 30.02 in1016.6 mb 0.00 in0.0 mm 0.00 in0.0 mm 0.01 in0.3 mm
07:06 AM 47.1°F8.4°C 47.1°F8.4°C 100% 3.1 mph W5.0 kmh W 3.7 mph6.0 kmh 30.02 in1016.6 mb 0.00 in0.0 mm 0.00 in0.0 mm 0.01 in0.3 mm
07:01 AM 47.3°F8.5°C 47.3°F8.5°C 100% 1.9 mph W3.1 kmh W 3.7 mph6.0 kmh 30.02 in1016.6 mb 0.00 in0.0 mm 0.00 in0.0 mm 0.01 in0.3 mm
06:56 AM 47.1°F8.4°C 47.1°F8.4°C 100% 0.6 mph W1.0 kmh W 3.7 mph6.0 kmh 30.02 in1016.6 mb 0.00 in0.0 mm 0.00 in0.0 mm 0.01 in0.3 mm
06:51 AM 47.1°F8.4°C 47.1°F8.4°C 100% Calm Calm -- 30.02 in1016.6 mb 0.01 in0.3 mm 0.00 in0.0 mm 0.01 in0.3 mm
06:46 AM 46.9°F8.3°C 46.9°F8.3°C 100% Calm Calm -- 30.01 in1016.3 mb 0.01 in0.3 mm 0.00 in0.0 mm 0.01 in0.3 mm
06:41 AM 47.1°F8.4°C 47.1°F8.4°C 100% Calm Calm -- 30.01 in1016.3 mb 0.01 in0.3 mm 0.00 in0.0 mm 0.01 in0.3 mm
06:36 AM 48.6°F9.2°C 48.6°F9.2°C 100% 0.6 mph WSW1.0 kmh WSW 2.5 mph4.0 kmh 30.01 in1016.3 mb 0.01 in0.3 mm 0.00 in0.0 mm 0.01 in0.3 mm
06:31 AM 49.8°F9.9°C 49.8°F9.9°C 100% 1.9 mph WSW3.1 kmh WSW 3.7 mph6.0 kmh 30.01 in1016.3 mb 0.01 in0.3 mm 0.00 in0.0 mm 0.01 in0.3 mm
06:26 AM 51.3°F10.7°C 51.3°F10.7°C 100% 3.1 mph W5.0 kmh W 3.7 mph6.0 kmh 30.00 in1015.9 mb 0.01 in0.3 mm 0.00 in0.0 mm 0.01 in0.3 mm
06:21 AM 50.5°F10.3°C 50.5°F10.3°C 100% 1.9 mph WSW3.1 kmh WSW 2.5 mph4.0 kmh 30.00 in1015.9 mb 0.01 in0.3 mm 0.00 in0.0 mm 0.01 in0.3 mm
06:16 AM 53.8°F12.1°C 51.1°F10.6°C 91% 1.9 mph WSW3.1 kmh WSW 2.5 mph4.0 kmh 30.00 in1015.9 mb 0.01 in0.3 mm 0.00 in0.0 mm 0.01 in0.3 mm
06:11 AM 53.8°F12.1°C 51.1°F10.6°C 91% 3.1 mph WSW5.0 kmh WSW 5.0 mph8.0 kmh 30.00 in1015.9 mb 0.01 in0.3 mm 0.00 in0.0 mm 0.01 in0.3 mm
06:06 AM 55.0°F12.8°C 51.1°F10.6°C 87% 1.9 mph WSW3.1 kmh WSW 5.0 mph8.0 kmh 30.00 in1015.9 mb 0.01 in0.3 mm 0.00 in0.0 mm 0.01 in0.3 mm
06:01 AM 54.7°F12.6°C 50.9°F10.5°C 87% Calm Calm 2.5 mph4.0 kmh 30.00 in1015.9 mb 0.01 in0.3 mm 0.01 in0.3 mm 0.01 in0.3 mm
05:56 AM 54.0°F12.2°C 50.9°F10.5°C 89% Calm Calm -- 30.00 in1015.9 mb 0.00 in0.0 mm 0.00 in0.0 mm 0.01 in0.3 mm
05:51 AM 52.2°F11.2°C 50.5°F10.3°C 94% Calm Calm -- 29.99 in1015.6 mb 0.00 in0.0 mm 0.00 in0.0 mm 0.00 in0.0 mm
05:46 AM 53.6°F12.0°C 50.5°F10.3°C 89% Calm Calm -- 29.99 in1015.6 mb 0.00 in0.0 mm 0.00 in0.0 mm 0.00 in0.0 mm
05:41 AM 53.1°F11.7°C 50.7°F10.4°C 92% Calm Calm -- 29.99 in1015.6 mb 0.00 in0.0 mm 0.00 in0.0 mm 0.00 in0.0 mm
05:36 AM 50.5°F10.3°C 50.5°F10.3°C 100% Calm Calm -- 29.99 in1015.6 mb 0.00 in0.0 mm 0.00 in0.0 mm 0.00 in0.0 mm
05:31 AM 48.0°F8.9°C 48.0°F8.9°C 100% Calm Calm -- 29.99 in1015.6 mb 0.00 in0.0 mm 0.00 in0.0 mm 0.00 in0.0 mm
05:26 AM 47.5°F8.6°C 47.5°F8.6°C 100% Calm Calm -- 29.99 in1015.6 mb 0.00 in0.0 mm 0.00 in0.0 mm 0.00 in0.0 mm
05:21 AM 48.0°F8.9°C 48.0°F8.9°C 100% Calm Calm -- 29.99 in1015.6 mb 0.00 in0.0 mm 0.00 in0.0 mm 0.00 in0.0 mm
05:16 AM 48.6°F9.2°C 48.6°F9.2°C 100% Calm Calm -- 29.99 in1015.6 mb 0.00 in0.0 mm 0.00 in0.0 mm 0.00 in0.0 mm
05:11 AM 48.7°F9.3°C 48.7°F9.3°C 100% Calm Calm -- 29.98 in1015.2 mb 0.00 in0.0 mm 0.00 in0.0 mm 0.00 in0.0 mm
05:06 AM 49.8°F9.9°C 49.8°F9.9°C 100% Calm Calm -- 29.98 in1015.2 mb 0.00 in0.0 mm 0.00 in0.0 mm 0.00 in0.0 mm
05:01 AM 52.3°F11.3°C 50.5°F10.3°C 94% Calm Calm -- 29.98 in1015.2 mb 0.00 in0.0 mm 0.00 in0.0 mm 0.00 in0.0 mm
04:56 AM 54.5°F12.5°C 50.9°F10.5°C 88% Calm Calm -- 29.98 in1015.2 mb 0.00 in0.0 mm 0.00 in0.0 mm 0.00 in0.0 mm
04:51 AM 54.9°F12.7°C 50.4°F10.2°C 85% Calm Calm -- 29.98 in1015.2 mb 0.00 in0.0 mm 0.00 in0.0 mm 0.00 in0.0 mm
04:46 AM 53.6°F12.0°C 50.4°F10.2°C 89% Calm Calm -- 29.98 in1015.2 mb 0.00 in0.0 mm 0.00 in0.0 mm 0.00 in0.0 mm
04:41 AM 50.9°F10.5°C 50.5°F10.3°C 99% Calm Calm -- 29.98 in1015.2 mb 0.00 in0.0 mm 0.00 in0.0 mm 0.00 in0.0 mm
04:36 AM 52.5°F11.4°C 50.2°F10.1°C 92% Calm Calm -- 29.97 in1014.9 mb 0.00 in0.0 mm 0.00 in0.0 mm 0.00 in0.0 mm
04:31 AM 50.5°F10.3°C 50.5°F10.3°C 100% Calm Calm -- 29.98 in1015.2 mb 0.00 in0.0 mm 0.00 in0.0 mm 0.00 in0.0 mm
04:26 AM 50.7°F10.4°C 50.7°F10.4°C 100% Calm Calm -- 29.98 in1015.2 mb 0.00 in0.0 mm 0.00 in0.0 mm 0.00 in0.0 mm
04:21 AM 50.7°F10.4°C 50.7°F10.4°C 100% Calm Calm -- 29.97 in1014.9 mb 0.00 in0.0 mm 0.00 in0.0 mm 0.00 in0.0 mm
04:11 AM 52.3°F11.3°C 51.1°F10.6°C 96% Calm Calm -- 29.97 in1014.9 mb 0.00 in0.0 mm 0.00 in0.0 mm 0.00 in0.0 mm
04:06 AM 52.0°F11.1°C 51.1°F10.6°C 97% Calm Calm -- 29.97 in1014.9 mb 0.00 in0.0 mm 0.00 in0.0 mm 0.00 in0.0 mm
04:01 AM 53.4°F11.9°C 50.7°F10.4°C 91% Calm Calm -- 29.97 in1014.9 mb 0.00 in0.0 mm 0.00 in0.0 mm 0.00 in0.0 mm
03:56 AM 52.5°F11.4°C 50.5°F10.3°C 93% Calm Calm -- 29.97 in1014.9 mb 0.00 in0.0 mm 0.00 in0.0 mm 0.00 in0.0 mm
03:51 AM 53.4°F11.9°C 50.5°F10.3°C 90% Calm Calm -- 29.97 in1014.9 mb 0.00 in0.0 mm 0.00 in0.0 mm 0.00 in0.0 mm
03:46 AM 54.9°F12.7°C 50.5°F10.3°C 85% Calm Calm -- 29.97 in1014.9 mb 0.00 in0.0 mm 0.00 in0.0 mm 0.00 in0.0 mm
03:41 AM 55.8°F13.2°C 50.5°F10.3°C 83% Calm Calm -- 29.97 in1014.9 mb 0.00 in0.0 mm 0.00 in0.0 mm 0.00 in0.0 mm
03:36 AM 53.6°F12.0°C 50.7°F10.4°C 90% Calm Calm -- 29.97 in1014.9 mb 0.00 in0.0 mm 0.00 in0.0 mm 0.00 in0.0 mm
03:31 AM 50.9°F10.5°C 50.5°F10.3°C 99% Calm Calm -- 29.97 in1014.9 mb 0.00 in0.0 mm 0.00 in0.0 mm 0.00 in0.0 mm
03:26 AM 50.9°F10.5°C 50.7°F10.4°C 99% Calm Calm -- 29.97 in1014.9 mb 0.00 in0.0 mm 0.00 in0.0 mm 0.00 in0.0 mm
03:21 AM 50.7°F10.4°C 50.7°F10.4°C 100% Calm Calm -- 29.97 in1014.9 mb 0.00 in0.0 mm 0.00 in0.0 mm 0.00 in0.0 mm
03:16 AM 51.3°F10.7°C -46.7°F-43.7°C 1% Calm Calm -- 29.97 in1014.9 mb 0.00 in0.0 mm 0.00 in0.0 mm 0.00 in0.0 mm
03:11 AM 51.3°F10.7°C 51.3°F10.7°C 100% Calm Calm -- 29.97 in1014.9 mb 0.00 in0.0 mm 0.00 in0.0 mm 0.00 in0.0 mm
03:06 AM 50.7°F10.4°C 50.7°F10.4°C 100% Calm Calm 1.9 mph3.1 kmh 29.97 in1014.9 mb 0.00 in0.0 mm 0.00 in0.0 mm 0.00 in0.0 mm
03:01 AM 50.7°F10.4°C 50.7°F10.4°C 100% 0.6 mph WSW1.0 kmh WSW 1.9 mph3.1 kmh 29.97 in1014.9 mb 0.00 in0.0 mm 0.00 in0.0 mm 0.00 in0.0 mm
02:56 AM 51.1°F10.6°C 51.1°F10.6°C 100% 0.6 mph WSW1.0 kmh WSW 2.5 mph4.0 kmh 29.97 in1014.9 mb 0.00 in0.0 mm 0.00 in0.0 mm 0.00 in0.0 mm
02:51 AM 51.4°F10.8°C 51.4°F10.8°C 100% 0.6 mph WSW1.0 kmh WSW 2.5 mph4.0 kmh 29.97 in1014.9 mb 0.00 in0.0 mm 0.00 in0.0 mm 0.00 in0.0 mm
02:46 AM 53.1°F11.7°C 52.2°F11.2°C 97% 0.6 mph WSW1.0 kmh WSW 2.5 mph4.0 kmh 29.97 in1014.9 mb 0.00 in0.0 mm 0.00 in0.0 mm 0.00 in0.0 mm
02:41 AM 54.5°F12.5°C 52.3°F11.3°C 92% Calm Calm 1.9 mph3.1 kmh 29.97 in1014.9 mb 0.00 in0.0 mm 0.00 in0.0 mm 0.00 in0.0 mm
02:36 AM 54.0°F12.2°C 52.3°F11.3°C 94% Calm Calm -- 29.98 in1015.2 mb 0.00 in0.0 mm 0.00 in0.0 mm 0.00 in0.0 mm
02:31 AM 55.0°F12.8°C 52.3°F11.3°C 91% 0.6 mph WSW1.0 kmh WSW 1.9 mph3.1 kmh 29.98 in1015.2 mb 0.00 in0.0 mm 0.00 in0.0 mm 0.00 in0.0 mm
02:26 AM 56.5°F13.6°C 52.3°F11.3°C 86% 0.6 mph WSW1.0 kmh WSW 1.9 mph3.1 kmh 29.98 in1015.2 mb 0.00 in0.0 mm 0.00 in0.0 mm 0.00 in0.0 mm
02:21 AM 58.1°F14.5°C 51.8°F11.0°C 80% 1.2 mph WSW1.9 kmh WSW 2.5 mph4.0 kmh 29.98 in1015.2 mb 0.00 in0.0 mm 0.00 in0.0 mm 0.00 in0.0 mm
02:11 AM 58.3°F14.6°C 52.2°F11.2°C 80% 2.5 mph WSW4.0 kmh WSW 3.7 mph6.0 kmh 29.98 in1015.2 mb 0.00 in0.0 mm 0.00 in0.0 mm 0.00 in0.0 mm
02:06 AM 57.7°F14.3°C 52.5°F11.4°C 83% 3.1 mph WSW5.0 kmh WSW 3.7 mph6.0 kmh 29.98 in1015.2 mb 0.00 in0.0 mm 0.00 in0.0 mm 0.00 in0.0 mm
02:01 AM 57.2°F14.0°C 52.5°F11.4°C 84% 1.9 mph WSW3.1 kmh WSW 3.7 mph6.0 kmh 29.98 in1015.2 mb 0.00 in0.0 mm 0.00 in0.0 mm 0.00 in0.0 mm
01:56 AM 57.4°F14.1°C 52.7°F11.5°C 84% Calm Calm 3.7 mph6.0 kmh 29.98 in1015.2 mb 0.00 in0.0 mm 0.00 in0.0 mm 0.00 in0.0 mm
01:51 AM 58.3°F14.6°C 52.0°F11.1°C 80% Calm Calm -- 29.98 in1015.2 mb 0.00 in0.0 mm 0.00 in0.0 mm 0.00 in0.0 mm
01:46 AM 59.7°F15.4°C 51.4°F10.8°C 74% Calm Calm -- 29.99 in1015.6 mb 0.00 in0.0 mm 0.00 in0.0 mm 0.00 in0.0 mm
01:41 AM 60.1°F15.6°C 52.5°F11.4°C 76% Calm Calm -- 29.99 in1015.6 mb 0.00 in0.0 mm 0.00 in0.0 mm 0.00 in0.0 mm
01:36 AM 61.0°F16.1°C 60.8°F16.0°C 99% Calm Calm -- 29.99 in1015.6 mb 0.00 in0.0 mm 0.00 in0.0 mm 0.00 in0.0 mm
01:31 AM 61.2°F16.2°C 61.2°F16.2°C 100% Calm Calm -- 29.99 in1015.6 mb 0.00 in0.0 mm 0.00 in0.0 mm 0.00 in0.0 mm
01:11 AM 60.8°F16.0°C 60.8°F16.0°C 100% Calm Calm -- 29.99 in1015.6 mb 0.00 in0.0 mm 0.00 in0.0 mm 0.00 in0.0 mm
01:01 AM 60.3°F15.7°C 60.3°F15.7°C 100% Calm Calm -- 29.99 in1015.6 mb 0.00 in0.0 mm 0.00 in0.0 mm 0.00 in0.0 mm
12:56 AM 61.2°F16.2°C 55.6°F13.1°C 82% Calm Calm -- 29.99 in1015.6 mb 0.00 in0.0 mm 0.00 in0.0 mm 0.00 in0.0 mm
12:51 AM 61.2°F16.2°C 52.5°F11.4°C 73% Calm Calm -- 29.99 in1015.6 mb 0.00 in0.0 mm 0.00 in0.0 mm 0.00 in0.0 mm
12:41 AM 61.0°F16.1°C 51.8°F11.0°C 72% Calm Calm -- 29.99 in1015.6 mb 0.00 in0.0 mm 0.00 in0.0 mm 0.00 in0.0 mm
12:36 AM 60.8°F16.0°C 52.0°F11.1°C 73% Calm Calm -- 29.99 in1015.6 mb 0.00 in0.0 mm 0.00 in0.0 mm 0.00 in0.0 mm
12:31 AM 60.6°F15.9°C 55.4°F13.0°C 83% Calm Calm -- 29.99 in1015.6 mb 0.00 in0.0 mm 0.00 in0.0 mm 0.00 in0.0 mm
12:26 AM 60.3°F15.7°C 56.3°F13.5°C 87% Calm Calm -- 30.00 in1015.9 mb 0.00 in0.0 mm 0.00 in0.0 mm 0.00 in0.0 mm
12:21 AM 60.1°F15.6°C 56.3°F13.5°C 87% Calm Calm -- 30.00 in1015.9 mb 0.00 in0.0 mm 0.00 in0.0 mm 0.00 in0.0 mm
12:16 AM 59.9°F15.5°C 54.3°F12.4°C 82% Calm Calm -- 30.00 in1015.9 mb 0.00 in0.0 mm 0.00 in0.0 mm 0.00 in0.0 mm
12:11 AM 59.7°F15.4°C 53.2°F11.8°C 79% Calm Calm -- 30.00 in1015.9 mb 0.00 in0.0 mm 0.00 in0.0 mm 0.00 in0.0 mm
12:01 AM 59.0°F15.0°C 52.9°F11.6°C 80% Calm Calm -- 30.00 in1015.9 mb 0.00 in0.0 mm 0.00 in0.0 mm 0.00 in0.0 mm